Time,TemperatureF,DewpointF,PressureIn,WindDirection,WindDirectionDegrees,WindSpeedMPH,WindSpeedGustMPH,Humidity,HourlyPrecipIn,Conditions,Clouds,dailyrainin,SoftwareType,DateUTC
2013-08-21 00:02:00,70.9,68.8,30.16,SSW,207,0.0,1.0,93,0.00,,,0.00,Wunderground v.1.15,2013-08-21 04:02:00,
2013-08-21 00:04:00,70.9,68.8,30.16,SW,221,0.0,2.0,93,0.00,,,0.00,Wunderground v.1.15,2013-08-21 04:04:00,
2013-08-21 00:06:00,70.9,69.1,30.16,SW,221,1.0,2.0,94,0.00,,,0.00,Wunderground v.1.15,2013-08-21 04:06:00,
2013-08-21 00:08:00,70.8,68.7,30.16,SW,222,1.0,2.0,93,0.00,,,0.00,Wunderground v.1.15,2013-08-21 04:08:00,
2013-08-21 00:10:00,70.7,68.6,30.16,SW,221,1.0,2.0,93,0.00,,,0.00,Wunderground v.1.15,2013-08-21 04:10:00,
2013-08-21 00:16:00,70.5,68.7,30.16,SW,221,0.0,0.0,94,0.00,,,0.00,Wunderground v.1.15,2013-08-21 04:16:00,
2013-08-21 00:22:00,70.4,68.6,30.16,SW,221,0.0,0.0,94,0.00,,,0.00,Wunderground v.1.15,2013-08-21 04:22:00,
2013-08-21 00:28:00,70.1,68.3,30.15,SW,221,0.0,0.0,94,0.00,,,0.00,Wunderground v.1.15,2013-08-21 04:28:00,
2013-08-21 00:34:00,69.8,68.0,30.16,SW,221,0.0,0.0,94,0.00,,,0.00,Wunderground v.1.15,2013-08-21 04:34:00,
2013-08-21 00:40:00,69.7,68.2,30.16,SW,221,0.0,0.0,95,0.00,,,0.00,Wunderground v.1.15,2013-08-21 04:40:00,
2013-08-21 00:46:00,69.8,68.3,30.16,SW,221,0.0,0.0,95,0.00,,,0.00,Wunderground v.1.15,2013-08-21 04:46:00,
2013-08-21 00:52:00,69.9,68.4,30.16,SW,221,0.0,1.0,95,0.00,,,0.00,Wunderground v.1.15,2013-08-21 04:52:00,
2013-08-21 00:58:00,69.9,68.4,30.16,SW,217,0.0,1.0,95,0.00,,,0.00,Wunderground v.1.15,2013-08-21 04:58:00,
2013-08-21 01:04:00,69.9,68.7,30.16,SW,218,0.0,2.0,96,0.00,,,0.00,Wunderground v.1.15,2013-08-21 05:04:00,
2013-08-21 01:10:00,69.8,68.3,30.16,SW,217,0.0,2.0,95,0.00,,,0.00,Wunderground v.1.15,2013-08-21 05:10:00,
2013-08-21 01:16:00,69.7,68.2,30.16,SW,218,0.0,2.0,95,0.00,,,0.00,Wunderground v.1.15,2013-08-21 05:16:00,
2013-08-21 01:22:00,69.7,68.5,30.16,SW,218,0.0,2.0,96,0.00,,,0.00,Wunderground v.1.15,2013-08-21 05:22:00,
2013-08-21 01:28:00,69.5,68.3,30.16,SW,217,0.0,2.0,96,0.00,,,0.00,Wunderground v.1.15,2013-08-21 05:28:00,
2013-08-21 01:34:00,69.7,68.5,30.16,SW,217,0.0,2.0,96,0.00,,,0.00,Wunderground v.1.15,2013-08-21 05:34:00,
2013-08-21 01:40:00,69.8,68.6,30.16,SW,218,0.0,2.0,96,0.00,,,0.00,Wunderground v.1.15,2013-08-21 05:40:00,
2013-08-21 01:46:00,69.6,68.4,30.16,SW,218,0.0,2.0,96,0.00,,,0.00,Wunderground v.1.15,2013-08-21 05:46:00,
2013-08-21 01:52:00,69.5,68.3,30.16,SW,222,0.0,2.0,96,0.00,,,0.00,Wunderground v.1.15,2013-08-21 05:52:00,
2013-08-21 01:58:00,69.3,68.1,30.16,SW,222,0.0,2.0,96,0.00,,,0.00,Wunderground v.1.15,2013-08-21 05:58:00,
2013-08-21 02:04:00,69.4,68.2,30.16,SW,222,0.0,2.0,96,0.00,,,0.00,Wunderground v.1.15,2013-08-21 06:04:00,
2013-08-21 02:10:00,69.5,68.3,30.16,SW,219,0.0,2.0,96,0.00,,,0.00,Wunderground v.1.15,2013-08-21 06:10:00,
2013-08-21 02:16:00,69.5,68.3,30.16,SW,229,0.0,2.0,96,0.00,,,0.00,Wunderground v.1.15,2013-08-21 06:16:00,
2013-08-21 02:22:00,69.3,68.1,30.15,SW,231,0.0,2.0,96,0.00,,,0.00,Wunderground v.1.15,2013-08-21 06:22:00,
2013-08-21 02:28:00,69.3,68.1,30.15,SW,230,0.0,2.0,96,0.00,,,0.00,Wunderground v.1.15,2013-08-21 06:28:00,
2013-08-21 02:34:00,69.3,68.1,30.16,SW,231,0.0,2.0,96,0.00,,,0.00,Wunderground v.1.15,2013-08-21 06:34:00,
2013-08-21 02:40:00,69.3,68.1,30.15,SW,231,0.0,2.0,96,0.00,,,0.00,Wunderground v.1.15,2013-08-21 06:40:00,
2013-08-21 02:46:00,69.5,68.6,30.15,SW,231,0.0,2.0,97,0.00,,,0.00,Wunderground v.1.15,2013-08-21 06:46:00,
2013-08-21 02:52:00,69.5,68.3,30.15,SW,231,0.0,2.0,96,0.00,,,0.00,Wunderground v.1.15,2013-08-21 06:52:00,
2013-08-21 02:58:00,69.6,68.7,30.15,SW,222,0.0,2.0,97,0.00,,,0.00,Wunderground v.1.15,2013-08-21 06:58:00,
2013-08-21 03:04:00,69.6,68.4,30.15,SW,222,0.0,2.0,96,0.00,,,0.00,Wunderground v.1.15,2013-08-21 07:04:00,
2013-08-21 03:10:00,69.8,68.9,30.15,SW,222,0.0,2.0,97,0.00,,,0.00,Wunderground v.1.15,2013-08-21 07:10:00,
2013-08-21 03:16:00,69.9,69.0,30.15,SW,222,0.0,2.0,97,0.00,,,0.00,Wunderground v.1.15,2013-08-21 07:16:00,
2013-08-21 03:22:00,69.7,68.5,30.15,SW,222,0.0,2.0,96,0.00,,,0.00,Wunderground v.1.15,2013-08-21 07:22:00,
2013-08-21 03:28:00,69.5,68.3,30.15,SW,222,0.0,2.0,96,0.00,,,0.00,Wunderground v.1.15,2013-08-21 07:28:00,
2013-08-21 03:34:00,69.5,68.3,30.15,SW,215,0.0,2.0,96,0.00,,,0.00,Wunderground v.1.15,2013-08-21 07:34:00,
2013-08-21 03:40:00,69.4,68.2,30.14,SW,215,0.0,2.0,96,0.00,,,0.00,Wunderground v.1.15,2013-08-21 07:40:00,
2013-08-21 03:46:00,69.3,68.1,30.14,SW,216,0.0,2.0,96,0.00,,,0.00,Wunderground v.1.15,2013-08-21 07:46:00,
2013-08-21 03:52:00,69.3,68.1,30.14,SW,215,0.0,2.0,96,0.00,,,0.00,Wunderground v.1.15,2013-08-21 07:52:00,
2013-08-21 03:58:00,69.3,68.1,30.14,SW,216,0.0,2.0,96,0.00,,,0.00,Wunderground v.1.15,2013-08-21 07:58:00,
2013-08-21 04:04:00,69.3,68.1,30.15,SW,215,0.0,2.0,96,0.00,,,0.00,Wunderground v.1.15,2013-08-21 08:04:00,
2013-08-21 04:10:00,69.4,68.5,30.14,SW,215,0.0,2.0,97,0.00,,,0.00,Wunderground v.1.15,2013-08-21 08:10:00,
2013-08-21 04:16:00,69.4,68.5,30.14,SW,215,0.0,2.0,97,0.00,,,0.00,Wunderground v.1.15,2013-08-21 08:16:00,
2013-08-21 04:22:00,69.6,68.7,30.14,SW,215,0.0,2.0,97,0.00,,,0.00,Wunderground v.1.15,2013-08-21 08:22:00,
2013-08-21 04:28:00,69.7,68.8,30.14,SW,215,0.0,2.0,97,0.00,,,0.00,Wunderground v.1.15,2013-08-21 08:28:00,
2013-08-21 04:34:00,69.7,68.8,30.14,SW,215,0.0,2.0,97,0.00,,,0.00,Wunderground v.1.15,2013-08-21 08:34:00,
2013-08-21 04:40:00,69.7,68.8,30.14,SW,215,0.0,2.0,97,0.00,,,0.00,Wunderground v.1.15,2013-08-21 08:40:00,
2013-08-21 04:46:00,69.8,68.9,30.14,SW,217,0.0,2.0,97,0.00,,,0.00,Wunderground v.1.15,2013-08-21 08:46:00,
2013-08-21 04:52:00,69.8,68.9,30.15,SW,217,0.0,2.0,97,0.00,,,0.00,Wunderground v.1.15,2013-08-21 08:52:00,
2013-08-21 04:58:00,69.9,69.0,30.15,SW,217,0.0,2.0,97,0.00,,,0.00,Wunderground v.1.15,2013-08-21 08:58:00,
2013-08-21 05:04:00,70.2,69.3,30.15,SW,215,0.0,2.0,97,0.00,,,0.00,Wunderground v.1.15,2013-08-21 09:04:00,
2013-08-21 05:10:00,70.5,69.6,30.15,SW,215,0.0,2.0,97,0.00,,,0.00,Wunderground v.1.15,2013-08-21 09:10:00,
2013-08-21 05:16:00,70.5,69.6,30.15,SW,216,0.0,2.0,97,0.00,,,0.00,Wunderground v.1.15,2013-08-21 09:16:00,
2013-08-21 05:22:00,70.6,69.7,30.15,SW,215,0.0,2.0,97,0.00,,,0.00,Wunderground v.1.15,2013-08-21 09:22:00,
2013-08-21 05:28:00,70.5,69.6,30.15,SW,214,0.0,2.0,97,0.00,,,0.00,Wunderground v.1.15,2013-08-21 09:28:00,
2013-08-21 05:34:00,70.7,69.8,30.16,SW,218,1.0,2.0,97,0.00,,,0.00,Wunderground v.1.15,2013-08-21 09:34:00,
2013-08-21 05:40:00,70.7,69.8,30.16,SSW,211,2.0,2.0,97,0.00,,,0.00,Wunderground v.1.15,2013-08-21 09:40:00,
2013-08-21 05:46:00,70.8,69.6,30.16,SSW,208,2.0,2.0,96,0.00,,,0.00,Wunderground v.1.15,2013-08-21 09:46:00,
2013-08-21 05:52:00,70.8,69.6,30.16,SSW,208,1.0,2.0,96,0.00,,,0.00,Wunderground v.1.15,2013-08-21 09:52:00,
2013-08-21 05:58:00,70.8,69.6,30.16,SSW,208,0.0,2.0,96,0.00,,,0.00,Wunderground v.1.15,2013-08-21 09:58:00,
2013-08-21 06:04:00,70.8,69.6,30.17,SSW,208,0.0,2.0,96,0.00,,,0.00,Wunderground v.1.15,2013-08-21 10:04:00,
2013-08-21 06:10:00,70.9,69.7,30.17,SW,214,0.0,2.0,96,0.00,,,0.00,Wunderground v.1.15,2013-08-21 10:10:00,
2013-08-21 06:16:00,70.9,69.7,30.17,SW,214,0.0,2.0,96,0.00,,,0.00,Wunderground v.1.15,2013-08-21 10:16:00,
2013-08-21 06:22:00,70.9,69.7,30.17,SW,214,0.0,2.0,96,0.00,,,0.00,Wunderground v.1.15,2013-08-21 10:22:00,
2013-08-21 06:28:00,70.9,69.7,30.17,SSW,211,0.0,2.0,96,0.00,,,0.00,Wunderground v.1.15,2013-08-21 10:28:00,
2013-08-21 06:34:00,71.0,69.8,30.17,SSW,210,0.0,2.0,96,0.00,,,0.00,Wunderground v.1.15,2013-08-21 10:34:00,
2013-08-21 06:40:00,71.0,69.8,30.17,SSW,211,0.0,2.0,96,0.00,,,0.00,Wunderground v.1.15,2013-08-21 10:40:00,
2013-08-21 06:46:00,70.9,69.7,30.17,SSW,211,0.0,2.0,96,0.00,,,0.00,Wunderground v.1.15,2013-08-21 10:46:00,
2013-08-21 06:52:00,71.0,69.8,30.17,SW,226,0.0,2.0,96,0.00,,,0.00,Wunderground v.1.15,2013-08-21 10:52:00,
2013-08-21 06:58:00,71.0,70.1,30.18,WNW,290,0.0,2.0,97,0.00,,,0.00,Wunderground v.1.15,2013-08-21 10:58:00,
2013-08-21 07:04:00,71.1,70.2,30.18,NNW,327,0.0,2.0,97,0.00,,,0.00,Wunderground v.1.15,2013-08-21 11:04:00,
2013-08-21 07:10:00,71.2,70.0,30.19,West,278,1.0,1.0,96,0.00,,,0.00,Wunderground v.1.15,2013-08-21 11:10:00,
2013-08-21 07:16:00,71.2,70.0,30.19,NW,322,1.0,2.0,96,0.00,,,0.00,Wunderground v.1.15,2013-08-21 11:16:00,
2013-08-21 07:22:00,71.2,70.0,30.19,NW,307,1.0,2.0,96,0.00,,,0.00,Wunderground v.1.15,2013-08-21 11:22:00,
2013-08-21 07:28:00,71.2,70.0,30.19,NW,315,2.0,2.0,96,0.00,,,0.00,Wunderground v.1.15,2013-08-21 11:28:00,
2013-08-21 07:34:00,71.3,70.1,30.19,WNW,300,2.0,2.0,96,0.00,,,0.00,Wunderground v.1.15,2013-08-21 11:34:00,
2013-08-21 07:40:00,71.2,70.0,30.19,NW,304,2.0,2.0,96,0.00,,,0.00,Wunderground v.1.15,2013-08-21 11:40:00,
2013-08-21 07:46:00,71.3,70.1,30.19,NW,307,2.0,2.0,96,0.00,,,0.00,Wunderground v.1.15,2013-08-21 11:46:00,
2013-08-21 07:52:00,71.3,69.8,30.19,West,278,1.0,2.0,95,0.00,,,0.00,Wunderground v.1.15,2013-08-21 11:52:00,
2013-08-21 07:58:00,71.4,69.9,30.19,WSW,238,2.0,3.0,95,0.00,,,0.00,Wunderground v.1.15,2013-08-21 11:58:00,
2013-08-21 08:04:00,71.4,69.9,30.19,WNW,293,2.0,3.0,95,0.00,,,0.00,Wunderground v.1.15,2013-08-21 12:04:00,
2013-08-21 08:10:00,71.4,69.9,30.19,WNW,287,2.0,2.0,95,0.00,,,0.00,Wunderground v.1.15,2013-08-21 12:10:00,
2013-08-21 08:16:00,71.5,70.0,30.19,NNW,343,3.0,4.0,95,0.00,,,0.00,Wunderground v.1.15,2013-08-21 12:16:00,
2013-08-21 08:22:00,71.6,70.1,30.19,NNW,345,3.0,3.0,95,0.00,,,0.00,Wunderground v.1.15,2013-08-21 12:22:00,
2013-08-21 08:28:00,71.7,69.9,30.19,WNW,294,2.0,3.0,94,0.00,,,0.00,Wunderground v.1.15,2013-08-21 12:28:00,
2013-08-21 08:34:00,71.8,70.0,30.19,NW,309,1.0,3.0,94,0.00,,,0.00,Wunderground v.1.15,2013-08-21 12:34:00,
2013-08-21 08:40:00,71.9,70.1,30.19,North,352,2.0,2.0,94,0.00,,,0.00,Wunderground v.1.15,2013-08-21 12:40:00,
2013-08-21 08:46:00,72.0,70.2,30.19,West,276,2.0,2.0,94,0.00,,,0.00,Wunderground v.1.15,2013-08-21 12:46:00,
2013-08-21 08:52:00,72.0,69.9,30.19,WNW,297,1.0,2.0,93,0.00,,,0.00,Wunderground v.1.15,2013-08-21 12:52:00,
2013-08-21 08:58:00,71.9,69.8,30.19,WSW,242,2.0,2.0,93,0.00,,,0.00,Wunderground v.1.15,2013-08-21 12:58:00,
2013-08-21 09:04:00,72.0,69.9,30.19,West,261,2.0,2.0,93,0.00,,,0.00,Wunderground v.1.15,2013-08-21 13:04:00,
2013-08-21 09:10:00,72.0,69.9,30.19,WNW,283,1.0,1.0,93,0.00,,,0.00,Wunderground v.1.15,2013-08-21 13:10:00,
2013-08-21 09:16:00,72.2,70.1,30.19,West,270,1.0,2.0,93,0.00,,,0.00,Wunderground v.1.15,2013-08-21 13:16:00,
2013-08-21 09:22:00,72.4,70.3,30.20,NW,307,1.0,2.0,93,0.00,,,0.00,Wunderground v.1.15,2013-08-21 13:22:00,
2013-08-21 09:28:00,72.6,70.5,30.20,NNW,340,1.0,2.0,93,0.00,,,0.00,Wunderground v.1.15,2013-08-21 13:28:00,
2013-08-21 09:34:00,72.9,70.4,30.20,NNW,328,1.0,2.0,92,0.00,,,0.00,Wunderground v.1.15,2013-08-21 13:34:00,
2013-08-21 09:40:00,73.3,70.8,30.20,NNW,339,0.0,2.0,92,0.00,,,0.00,Wunderground v.1.15,2013-08-21 13:40:00,
2013-08-21 09:46:00,73.9,71.1,30.20,NNW,347,0.0,2.0,91,0.00,,,0.00,Wunderground v.1.15,2013-08-21 13:46:00,
2013-08-21 09:52:00,73.8,71.0,30.20,NNE,15,1.0,2.0,91,0.00,,,0.00,Wunderground v.1.15,2013-08-21 13:52:00,
2013-08-21 09:58:00,73.7,70.9,30.20,North,356,1.0,2.0,91,0.00,,,0.00,Wunderground v.1.15,2013-08-21 13:58:00,
2013-08-21 10:04:00,73.7,70.9,30.21,North,5,1.0,2.0,91,0.00,,,0.00,Wunderground v.1.15,2013-08-21 14:04:00,
2013-08-21 10:10:00,73.9,71.1,30.21,NNW,335,1.0,1.0,91,0.00,,,0.00,Wunderground v.1.15,2013-08-21 14:10:00,
2013-08-21 10:16:00,73.9,70.8,30.21,North,4,1.0,4.0,90,0.00,,,0.00,Wunderground v.1.15,2013-08-21 14:16:00,
2013-08-21 10:22:00,74.0,70.9,30.21,NNW,345,1.0,2.0,90,0.00,,,0.00,Wunderground v.1.15,2013-08-21 14:22:00,
2013-08-21 10:28:00,74.1,71.0,30.21,NNE,28,1.0,2.0,90,0.00,,,0.00,Wunderground v.1.15,2013-08-21 14:28:00,
2013-08-21 10:34:00,74.0,70.6,30.21,NNE,22,3.0,5.0,89,0.00,,,0.00,Wunderground v.1.15,2013-08-21 14:34:00,
2013-08-21 10:40:00,74.0,70.2,30.22,North,8,4.0,4.0,88,0.00,,,0.00,Wunderground v.1.15,2013-08-21 14:40:00,
2013-08-21 10:46:00,74.1,70.3,30.22,NNE,25,3.0,4.0,88,0.00,,,0.00,Wunderground v.1.15,2013-08-21 14:46:00,
2013-08-21 10:52:00,74.5,70.4,30.22,NE,42,2.0,3.0,87,0.00,,,0.00,Wunderground v.1.15,2013-08-21 14:52:00,
2013-08-21 10:58:00,74.7,70.2,30.22,NNE,14,1.0,3.0,86,0.00,,,0.00,Wunderground v.1.15,2013-08-21 14:58:00,
2013-08-21 11:04:00,75.0,70.9,30.22,NNE,19,1.0,2.0,87,0.00,,,0.00,Wunderground v.1.15,2013-08-21 15:04:00,
2013-08-21 11:10:00,75.5,71.0,30.22,NNE,12,1.0,2.0,86,0.00,,,0.00,Wunderground v.1.15,2013-08-21 15:10:00,
2013-08-21 11:16:00,75.9,71.4,30.22,NNE,25,1.0,3.0,86,0.00,,,0.00,Wunderground v.1.15,2013-08-21 15:16:00,
2013-08-21 11:22:00,76.2,71.7,30.22,NNE,30,2.0,2.0,86,0.00,,,0.00,Wunderground v.1.15,2013-08-21 15:22:00,
2013-08-21 11:28:00,76.3,71.5,30.22,North,8,2.0,3.0,85,0.00,,,0.00,Wunderground v.1.15,2013-08-21 15:28:00,
2013-08-21 11:34:00,76.3,71.5,30.22,NNE,16,2.0,2.0,85,0.00,,,0.00,Wunderground v.1.15,2013-08-21 15:34:00,
2013-08-21 11:40:00,76.5,71.7,30.21,NNE,26,2.0,2.0,85,0.00,,,0.00,Wunderground v.1.15,2013-08-21 15:40:00,
2013-08-21 11:46:00,76.7,71.5,30.21,NNE,27,2.0,2.0,84,0.00,,,0.00,Wunderground v.1.15,2013-08-21 15:46:00,
2013-08-21 11:52:00,76.7,71.8,30.21,NNE,23,2.0,2.0,85,0.00,,,0.00,Wunderground v.1.15,2013-08-21 15:52:00,
2013-08-21 11:58:00,77.1,71.9,30.21,NNE,25,2.0,2.0,84,0.00,,,0.00,Wunderground v.1.15,2013-08-21 15:58:00,
2013-08-21 12:04:00,77.5,71.9,30.21,NNE,29,2.0,2.0,83,0.00,,,0.00,Wunderground v.1.15,2013-08-21 16:04:00,
2013-08-21 12:10:00,78.0,72.1,30.21,NNE,20,0.0,2.0,82,0.00,,,0.00,Wunderground v.1.15,2013-08-21 16:10:00,
2013-08-21 12:16:00,78.3,72.3,30.21,NE,41,1.0,2.0,82,0.00,,,0.00,Wunderground v.1.15,2013-08-21 16:16:00,
2013-08-21 12:22:00,78.5,72.9,30.21,North,11,1.0,2.0,83,0.00,,,0.00,Wunderground v.1.15,2013-08-21 16:22:00,
2013-08-21 12:28:00,78.3,72.3,30.21,NNE,20,1.0,2.0,82,0.00,,,0.00,Wunderground v.1.15,2013-08-21 16:28:00,
2013-08-21 12:34:00,78.2,72.6,30.21,NE,39,2.0,2.0,83,0.00,,,0.00,Wunderground v.1.15,2013-08-21 16:34:00,
2013-08-21 12:40:00,78.1,72.5,30.20,NNE,30,2.0,2.0,83,0.00,,,0.00,Wunderground v.1.15,2013-08-21 16:40:00,
2013-08-21 12:46:00,78.0,72.4,30.20,NNE,28,2.0,3.0,83,0.00,,,0.00,Wunderground v.1.15,2013-08-21 16:46:00,
2013-08-21 12:52:00,78.3,72.7,30.20,NNE,25,2.0,2.0,83,0.00,,,0.00,Wunderground v.1.15,2013-08-21 16:52:00,
2013-08-21 12:58:00,78.9,72.6,30.19,North,5,1.0,3.0,81,0.00,,,0.00,Wunderground v.1.15,2013-08-21 16:58:00,
2013-08-21 13:04:00,78.9,72.6,30.19,North,8,2.0,3.0,81,0.00,,,0.00,Wunderground v.1.15,2013-08-21 17:04:00,
2013-08-21 13:10:00,79.2,72.5,30.19,NNE,15,1.0,2.0,80,0.00,,,0.00,Wunderground v.1.15,2013-08-21 17:10:00,
2013-08-21 13:16:00,79.7,73.0,30.19,North,8,1.0,2.0,80,0.00,,,0.00,Wunderground v.1.15,2013-08-21 17:16:00,
2013-08-21 13:22:00,79.8,72.7,30.19,NNE,16,1.0,2.0,79,0.00,,,0.00,Wunderground v.1.15,2013-08-21 17:22:00,
2013-08-21 13:28:00,80.0,72.5,30.18,NNE,18,1.0,2.0,78,0.00,,,0.00,Wunderground v.1.15,2013-08-21 17:28:00,
2013-08-21 13:34:00,80.2,73.1,30.18,NNE,29,1.0,2.0,79,0.00,,,0.00,Wunderground v.1.15,2013-08-21 17:34:00,
2013-08-21 13:40:00,80.4,72.1,30.18,NNE,33,1.0,2.0,76,0.00,,,0.00,Wunderground v.1.15,2013-08-21 17:40:00,
2013-08-21 13:46:00,80.1,72.2,30.18,NNE,20,1.0,2.0,77,0.00,,,0.00,Wunderground v.1.15,2013-08-21 17:46:00,
2013-08-21 13:52:00,79.9,72.4,30.17,NNE,26,1.0,3.0,78,0.00,,,0.00,Wunderground v.1.15,2013-08-21 17:52:00,
2013-08-21 13:58:00,79.5,72.4,30.17,NNE,20,1.0,3.0,79,0.00,,,0.00,Wunderground v.1.15,2013-08-21 17:58:00,
2013-08-21 14:04:00,79.4,72.3,30.17,NNE,22,0.0,2.0,79,0.00,,,0.00,Wunderground v.1.15,2013-08-21 18:04:00,
2013-08-21 14:10:00,79.6,72.1,30.17,NNE,20,0.0,2.0,78,0.00,,,0.00,Wunderground v.1.15,2013-08-21 18:10:00,
2013-08-21 14:16:00,80.1,72.2,30.17,North,8,0.0,2.0,77,0.00,,,0.00,Wunderground v.1.15,2013-08-21 18:16:00,
2013-08-21 14:22:00,80.4,71.7,30.17,North,8,0.0,2.0,75,0.00,,,0.00,Wunderground v.1.15,2013-08-21 18:22:00,
2013-08-21 14:28:00,79.8,72.3,30.18,SW,218,0.0,2.0,78,0.00,,,0.00,Wunderground v.1.15,2013-08-21 18:28:00,
2013-08-21 14:34:00,78.9,72.9,30.18,SW,217,2.0,2.0,82,0.00,,,0.00,Wunderground v.1.15,2013-08-21 18:34:00,
2013-08-21 14:40:00,77.9,72.7,30.18,SW,225,3.0,3.0,84,0.00,,,0.00,Wunderground v.1.15,2013-08-21 18:40:00,
2013-08-21 14:46:00,77.2,73.0,30.18,SSW,203,2.0,4.0,87,0.00,,,0.00,Wunderground v.1.15,2013-08-21 18:46:00,
2013-08-21 14:52:00,76.8,71.9,30.18,SSW,197,2.0,3.0,85,0.00,,,0.01,Wunderground v.1.15,2013-08-21 18:52:00,
2013-08-21 14:58:00,76.3,72.1,30.19,SSW,212,3.0,5.0,87,0.00,,,0.01,Wunderground v.1.15,2013-08-21 18:58:00,
2013-08-21 15:04:00,75.7,72.6,30.18,SSW,207,3.0,5.0,90,0.08,,,0.02,Wunderground v.1.15,2013-08-21 19:04:00,
2013-08-21 15:10:00,75.3,72.2,30.18,SSW,207,1.0,1.0,90,0.07,,,0.03,Wunderground v.1.15,2013-08-21 19:10:00,
2013-08-21 15:16:00,75.1,72.3,30.19,SSW,210,2.0,6.0,91,0.07,,,0.03,Wunderground v.1.15,2013-08-21 19:16:00,
2013-08-21 15:22:00,74.9,72.1,30.19,SSW,208,6.0,8.0,91,0.06,,,0.04,Wunderground v.1.15,2013-08-21 19:22:00,
2013-08-21 15:28:00,74.6,71.8,30.18,South,191,6.0,8.0,91,0.19,,,0.06,Wunderground v.1.15,2013-08-21 19:28:00,
2013-08-21 15:34:00,74.2,71.4,30.18,SSW,195,5.0,6.0,91,0.14,,,0.08,Wunderground v.1.15,2013-08-21 19:34:00,
2013-08-21 15:40:00,74.0,71.2,30.17,SW,224,3.0,3.0,91,0.09,,,0.08,Wunderground v.1.15,2013-08-21 19:40:00,
2013-08-21 15:46:00,73.8,71.3,30.16,NW,304,1.0,3.0,92,0.05,,,0.08,Wunderground v.1.15,2013-08-21 19:46:00,
2013-08-21 15:52:00,73.8,71.3,30.16,North,8,1.0,2.0,92,0.04,,,0.09,Wunderground v.1.15,2013-08-21 19:52:00,
2013-08-21 15:58:00,73.7,71.2,30.17,SSE,166,1.0,3.0,92,0.13,,,0.11,Wunderground v.1.15,2013-08-21 19:58:00,
2013-08-21 16:04:00,73.9,71.7,30.17,SE,132,3.0,4.0,93,0.09,,,0.11,Wunderground v.1.15,2013-08-21 20:04:00,
2013-08-21 16:10:00,74.0,71.5,30.16,South,176,5.0,5.0,92,0.05,,,0.11,Wunderground v.1.15,2013-08-21 20:10:00,
2013-08-21 16:16:00,74.1,71.9,30.16,South,183,4.0,5.0,93,0.00,,,0.11,Wunderground v.1.15,2013-08-21 20:16:00,
2013-08-21 16:22:00,74.3,72.1,30.15,SE,138,2.0,3.0,93,0.00,,,0.11,Wunderground v.1.15,2013-08-21 20:22:00,
2013-08-21 16:28:00,74.3,72.1,30.15,SSW,201,4.0,6.0,93,0.00,,,0.11,Wunderground v.1.15,2013-08-21 20:28:00,
2013-08-21 16:34:00,74.6,72.1,30.15,South,176,5.0,6.0,92,0.00,,,0.11,Wunderground v.1.15,2013-08-21 20:34:00,
2013-08-21 16:40:00,74.8,72.3,30.15,SSW,198,4.0,4.0,92,0.00,,,0.11,Wunderground v.1.15,2013-08-21 20:40:00,
2013-08-21 16:46:00,75.0,71.5,30.15,SSW,195,4.0,8.0,89,0.00,,,0.11,Wunderground v.1.15,2013-08-21 20:46:00,
2013-08-21 16:52:00,75.1,71.6,30.15,SSW,195,6.0,7.0,89,0.00,,,0.11,Wunderground v.1.15,2013-08-21 20:52:00,
2013-08-21 16:58:00,75.1,71.3,30.15,SSW,193,5.0,7.0,88,0.00,,,0.11,Wunderground v.1.15,2013-08-21 20:58:00,
2013-08-21 17:04:00,75.2,71.4,30.15,South,173,5.0,5.0,88,0.00,,,0.11,Wunderground v.1.15,2013-08-21 21:04:00,
2013-08-21 17:10:00,75.2,71.4,30.15,South,183,4.0,5.0,88,0.00,,,0.11,Wunderground v.1.15,2013-08-21 21:10:00,
2013-08-21 17:16:00,75.3,71.5,30.15,South,187,6.0,6.0,88,0.00,,,0.11,Wunderground v.1.15,2013-08-21 21:16:00,
2013-08-21 17:22:00,75.3,71.2,30.14,South,191,5.0,7.0,87,0.00,,,0.11,Wunderground v.1.15,2013-08-21 21:22:00,
2013-08-21 17:28:00,75.2,71.4,30.14,South,181,6.0,7.0,88,0.00,,,0.11,Wunderground v.1.15,2013-08-21 21:28:00,
2013-08-21 17:34:00,75.2,71.1,30.13,SSW,194,5.0,9.0,87,0.00,,,0.11,Wunderground v.1.15,2013-08-21 21:34:00,
2013-08-21 17:40:00,75.3,71.5,30.13,South,186,5.0,5.0,88,0.00,,,0.11,Wunderground v.1.15,2013-08-21 21:40:00,
2013-08-21 17:46:00,75.4,71.3,30.13,South,173,4.0,5.0,87,0.00,,,0.11,Wunderground v.1.15,2013-08-21 21:46:00,
2013-08-21 17:52:00,75.7,71.9,30.13,South,176,4.0,4.0,88,0.00,,,0.11,Wunderground v.1.15,2013-08-21 21:52:00,
2013-08-21 17:58:00,75.8,71.7,30.13,South,171,3.0,5.0,87,0.00,,,0.11,Wunderground v.1.15,2013-08-21 21:58:00,
2013-08-21 18:04:00,76.3,72.1,30.13,South,177,3.0,5.0,87,0.00,,,0.11,Wunderground v.1.15,2013-08-21 22:04:00,
2013-08-21 18:10:00,76.1,71.9,30.13,South,174,4.0,4.0,87,0.00,,,0.11,Wunderground v.1.15,2013-08-21 22:10:00,
2013-08-21 18:16:00,76.1,71.9,30.13,South,170,3.0,4.0,87,0.00,,,0.11,Wunderground v.1.15,2013-08-21 22:16:00,
2013-08-21 18:22:00,76.2,72.0,30.13,SW,226,1.0,2.0,87,0.00,,,0.11,Wunderground v.1.15,2013-08-21 22:22:00,
2013-08-21 18:28:00,76.4,71.2,30.13,SSW,203,2.0,5.0,84,0.00,,,0.11,Wunderground v.1.15,2013-08-21 22:28:00,
2013-08-21 18:34:00,76.3,71.5,30.13,SSW,194,3.0,5.0,85,0.00,,,0.11,Wunderground v.1.15,2013-08-21 22:34:00,
2013-08-21 18:40:00,76.4,71.2,30.13,South,169,3.0,3.0,84,0.00,,,0.11,Wunderground v.1.15,2013-08-21 22:40:00,
2013-08-21 18:46:00,76.5,70.9,30.13,SSW,211,4.0,5.0,83,0.00,,,0.11,Wunderground v.1.15,2013-08-21 22:46:00,
2013-08-21 18:52:00,76.9,71.7,30.12,SE,136,4.0,4.0,84,0.00,,,0.11,Wunderground v.1.15,2013-08-21 22:52:00,
2013-08-21 18:58:00,77.2,71.3,30.12,SE,143,2.0,4.0,82,0.00,,,0.11,Wunderground v.1.15,2013-08-21 22:58:00,
2013-08-21 19:04:00,77.8,71.9,30.12,SW,217,1.0,2.0,82,0.00,,,0.11,Wunderground v.1.15,2013-08-21 23:04:00,
2013-08-21 19:10:00,78.1,71.8,30.12,SSW,211,1.0,1.0,81,0.00,,,0.11,Wunderground v.1.15,2013-08-21 23:10:00,
2013-08-21 19:16:00,78.1,71.4,30.13,WSW,245,1.0,2.0,80,0.00,,,0.11,Wunderground v.1.15,2013-08-21 23:16:00,
2013-08-21 19:22:00,77.9,71.2,30.13,SSW,203,0.0,2.0,80,0.00,,,0.11,Wunderground v.1.15,2013-08-21 23:22:00,
2013-08-21 19:28:00,77.2,70.9,30.13,South,170,1.0,2.0,81,0.00,,,0.11,Wunderground v.1.15,2013-08-21 23:28:00,
2013-08-21 19:34:00,76.7,70.8,30.13,South,172,1.0,2.0,82,0.00,,,0.11,Wunderground v.1.15,2013-08-21 23:34:00,
2013-08-21 19:40:00,76.4,71.9,30.13,South,177,1.0,2.0,86,0.00,,,0.11,Wunderground v.1.15,2013-08-21 23:40:00,
2013-08-21 19:46:00,76.5,72.3,30.13,ENE,69,0.0,2.0,87,0.00,,,0.11,Wunderground v.1.15,2013-08-21 23:46:00,
2013-08-21 19:52:00,76.5,72.0,30.13,ENE,76,1.0,2.0,86,0.00,,,0.11,Wunderground v.1.15,2013-08-21 23:52:00,
2013-08-21 19:58:00,76.3,71.8,30.14,ENE,61,1.0,2.0,86,0.00,,,0.11,Wunderground v.1.15,2013-08-21 23:58:00,
2013-08-21 20:04:00,76.1,71.9,30.14,ENE,60,0.0,2.0,87,0.00,,,0.11,Wunderground v.1.15,2013-08-22 00:04:00,
2013-08-21 20:10:00,75.8,72.0,30.14,ENE,61,0.0,2.0,88,0.00,,,0.11,Wunderground v.1.15,2013-08-22 00:10:00,
2013-08-21 20:16:00,75.3,72.2,30.14,ENE,64,0.0,2.0,90,0.00,,,0.11,Wunderground v.1.15,2013-08-22 00:16:00,
2013-08-21 20:22:00,74.7,71.6,30.13,SE,146,1.0,2.0,90,0.00,,,0.11,Wunderground v.1.15,2013-08-22 00:22:00,
2013-08-21 20:28:00,74.1,71.0,30.14,South,180,2.0,3.0,90,0.00,,,0.11,Wunderground v.1.15,2013-08-22 00:28:00,
2013-08-21 20:34:00,73.4,70.9,30.14,South,181,2.0,2.0,92,0.00,,,0.11,Wunderground v.1.15,2013-08-22 00:34:00,
2013-08-21 20:40:00,73.1,70.6,30.14,South,180,1.0,2.0,92,0.00,,,0.11,Wunderground v.1.15,2013-08-22 00:40:00,
2013-08-21 20:46:00,73.0,70.5,30.14,SSE,148,1.0,2.0,92,0.00,,,0.11,Wunderground v.1.15,2013-08-22 00:46:00,
2013-08-21 20:52:00,72.9,70.4,30.14,South,181,2.0,2.0,92,0.00,,,0.11,Wunderground v.1.15,2013-08-22 00:52:00,
2013-08-21 20:58:00,72.7,70.2,30.14,South,190,2.0,2.0,92,0.00,,,0.11,Wunderground v.1.15,2013-08-22 00:58:00,
2013-08-21 21:04:00,72.4,69.9,30.14,South,189,2.0,2.0,92,0.00,,,0.11,Wunderground v.1.15,2013-08-22 01:04:00,
2013-08-21 21:10:00,72.3,70.2,30.14,South,183,1.0,2.0,93,0.00,,,0.11,Wunderground v.1.15,2013-08-22 01:10:00,
2013-08-21 21:16:00,72.2,69.7,30.14,SSW,198,1.0,2.0,92,0.00,,,0.11,Wunderground v.1.15,2013-08-22 01:16:00,
2013-08-21 21:22:00,72.0,69.9,30.14,South,181,1.0,2.0,93,0.00,,,0.11,Wunderground v.1.15,2013-08-22 01:22:00,
2013-08-21 21:28:00,71.9,70.1,30.14,SE,139,0.0,2.0,94,0.00,,,0.11,Wunderground v.1.15,2013-08-22 01:28:00,
2013-08-21 21:34:00,71.8,70.0,30.14,South,178,0.0,2.0,94,0.00,,,0.11,Wunderground v.1.15,2013-08-22 01:34:00,
2013-08-21 21:40:00,71.6,69.8,30.14,SW,218,0.0,2.0,94,0.00,,,0.11,Wunderground v.1.15,2013-08-22 01:40:00,
2013-08-21 21:46:00,71.4,69.6,30.15,SSW,201,0.0,2.0,94,0.00,,,0.11,Wunderground v.1.15,2013-08-22 01:46:00,
2013-08-21 21:52:00,71.4,69.9,30.15,SSW,205,0.0,2.0,95,0.00,,,0.11,Wunderground v.1.15,2013-08-22 01:52:00,
2013-08-21 21:58:00,71.2,69.4,30.15,SSW,205,0.0,2.0,94,0.00,,,0.11,Wunderground v.1.15,2013-08-22 01:58:00,
2013-08-21 22:04:00,71.0,69.2,30.16,SSW,205,0.0,2.0,94,0.00,,,0.11,Wunderground v.1.15,2013-08-22 02:04:00,
2013-08-21 22:10:00,70.9,69.4,30.16,SSW,206,0.0,2.0,95,0.00,,,0.11,Wunderground v.1.15,2013-08-22 02:10:00,
2013-08-21 22:16:00,70.8,69.3,30.16,SE,145,0.0,2.0,95,0.00,,,0.11,Wunderground v.1.15,2013-08-22 02:16:00,
2013-08-21 22:22:00,70.9,69.4,30.16,SSE,159,0.0,2.0,95,0.00,,,0.11,Wunderground v.1.15,2013-08-22 02:22:00,
2013-08-21 22:28:00,70.9,69.4,30.16,South,181,0.0,2.0,95,0.00,,,0.11,Wunderground v.1.15,2013-08-22 02:28:00,
2013-08-21 22:34:00,70.6,68.8,30.16,SSW,205,0.0,2.0,94,0.00,,,0.11,Wunderground v.1.15,2013-08-22 02:34:00,
2013-08-21 22:40:00,70.4,68.9,30.16,SSW,194,0.0,2.0,95,0.00,,,0.11,Wunderground v.1.15,2013-08-22 02:40:00,
2013-08-21 22:46:00,70.5,69.0,30.16,SSE,148,0.0,2.0,95,0.00,,,0.11,Wunderground v.1.15,2013-08-22 02:46:00,
2013-08-21 22:52:00,70.7,69.5,30.16,SSE,159,0.0,2.0,96,0.00,,,0.11,Wunderground v.1.15,2013-08-22 02:52:00,
2013-08-21 22:58:00,70.0,68.2,30.17,SSW,211,0.0,2.0,94,0.00,,,0.11,Wunderground v.1.15,2013-08-22 02:58:00,
2013-08-21 23:04:00,69.8,68.3,30.17,SW,218,0.0,2.0,95,0.00,,,0.11,Wunderground v.1.15,2013-08-22 03:04:00,
2013-08-21 23:10:00,69.7,68.5,30.17,SW,222,0.0,2.0,96,0.00,,,0.11,Wunderground v.1.15,2013-08-22 03:10:00,
2013-08-21 23:16:00,69.8,68.6,30.17,West,276,0.0,2.0,96,0.00,,,0.11,Wunderground v.1.15,2013-08-22 03:16:00,
2013-08-21 23:22:00,69.8,68.6,30.17,West,259,0.0,2.0,96,0.00,,,0.11,Wunderground v.1.15,2013-08-22 03:22:00,
2013-08-21 23:28:00,69.7,68.5,30.17,West,260,0.0,2.0,96,0.00,,,0.11,Wunderground v.1.15,2013-08-22 03:28:00,
2013-08-21 23:34:00,69.6,68.4,30.17,West,267,0.0,2.0,96,0.00,,,0.11,Wunderground v.1.15,2013-08-22 03:34:00,
2013-08-21 23:40:00,69.6,68.4,30.17,West,264,0.0,2.0,96,0.00,,,0.11,Wunderground v.1.15,2013-08-22 03:40:00,
2013-08-21 23:46:00,69.2,68.0,30.17,West,260,0.0,2.0,96,0.00,,,0.11,Wunderground v.1.15,2013-08-22 03:46:00,
2013-08-21 23:52:00,69.2,68.0,30.17,West,260,0.0,2.0,96,0.00,,,0.11,Wunderground v.1.15,2013-08-22 03:52:00,
2013-08-21 23:58:00,69.2,68.0,30.17,WSW,253,0.0,2.0,96,0.00,,,0.11,Wunderground v.1.15,2013-08-22 03:58:00,